sensor_id;sensor_type;location;lat;lon;timestamp;pressure;altitude;pressure_sealevel;temperature;humidity
21520;BME280;10921;53.614;9.882;2023-02-12T00:01:13;103319.22;;;9.37;95.79
21520;BME280;10921;53.614;9.882;2023-02-12T00:03:40;103286.97;;;9.06;95.54
21520;BME280;10921;53.614;9.882;2023-02-12T00:06:08;103319.44;;;9.33;95.92
21520;BME280;10921;53.614;9.882;2023-02-12T00:08:35;103327.28;;;9.36;95.53
21520;BME280;10921;53.614;9.882;2023-02-12T00:11:13;103337.94;;;9.36;96.32
21520;BME280;10921;53.614;9.882;2023-02-12T00:13:41;103337.22;;;9.32;95.28
21520;BME280;10921;53.614;9.882;2023-02-12T00:16:10;103326.28;;;9.20;95.43
21520;BME280;10921;53.614;9.882;2023-02-12T00:18:37;103351.78;;;9.25;95.06
21520;BME280;10921;53.614;9.882;2023-02-12T00:21:04;103301.47;;;9.00;95.30
21520;BME280;10921;53.614;9.882;2023-02-12T00:23:31;103355.38;;;9.24;95.66
21520;BME280;10921;53.614;9.882;2023-02-12T00:25:58;103337.94;;;9.17;95.39
21520;BME280;10921;53.614;9.882;2023-02-12T00:28:25;103351.06;;;9.22;95.58
21520;BME280;10921;53.614;9.882;2023-02-12T00:30:51;103351.13;;;9.20;95.30
21520;BME280;10921;53.614;9.882;2023-02-12T00:33:18;103360.13;;;9.17;95.80
21520;BME280;10921;53.614;9.882;2023-02-12T00:35:44;103363.56;;;9.20;95.85
21520;BME280;10921;53.614;9.882;2023-02-12T00:38:11;103365.38;;;9.19;95.78
21520;BME280;10921;53.614;9.882;2023-02-12T00:40:37;103371.56;;;9.20;95.85
21520;BME280;10921;53.614;9.882;2023-02-12T00:43:04;103368.03;;;9.19;95.92
21520;BME280;10921;53.614;9.882;2023-02-12T00:45:31;103375.97;;;9.21;95.98
21520;BME280;10921;53.614;9.882;2023-02-12T00:47:57;103367.03;;;9.22;95.74
21520;BME280;10921;53.614;9.882;2023-02-12T00:50:24;103363.88;;;9.13;95.85
21520;BME280;10921;53.614;9.882;2023-02-12T00:52:50;103366.09;;;9.23;95.57
21520;BME280;10921;53.614;9.882;2023-02-12T00:55:17;103359.97;;;9.21;95.65
21520;BME280;10921;53.614;9.882;2023-02-12T00:57:43;103358.31;;;9.18;95.83
21520;BME280;10921;53.614;9.882;2023-02-12T01:00:10;103367.97;;;9.21;95.48
21520;BME280;10921;53.614;9.882;2023-02-12T01:02:37;103378.69;;;9.19;95.46
21520;BME280;10921;53.614;9.882;2023-02-12T01:05:04;103358.03;;;9.05;95.26
21520;BME280;10921;53.614;9.882;2023-02-12T01:07:30;103337.50;;;8.89;95.06
21520;BME280;10921;53.614;9.882;2023-02-12T01:09:57;103383.41;;;9.14;95.10
21520;BME280;10921;53.614;9.882;2023-02-12T01:12:23;103343.41;;;8.95;95.54
21520;BME280;10921;53.614;9.882;2023-02-12T01:14:50;103377.28;;;9.12;95.14
21520;BME280;10921;53.614;9.882;2023-02-12T01:17:17;103372.88;;;9.11;95.47
21520;BME280;10921;53.614;9.882;2023-02-12T01:19:43;103283.03;;;8.57;95.07
21520;BME280;10921;53.614;9.882;2023-02-12T01:22:10;103375.75;;;9.06;95.42
21520;BME280;10921;53.614;9.882;2023-02-12T01:24:36;103376.66;;;9.05;95.41
21520;BME280;10921;53.614;9.882;2023-02-12T01:27:03;103374.00;;;9.05;95.56
21520;BME280;10921;53.614;9.882;2023-02-12T01:29:29;103381.13;;;9.05;95.39
21520;BME280;10921;53.614;9.882;2023-02-12T01:31:56;103375.00;;;9.03;95.76
21520;BME280;10921;53.614;9.882;2023-02-12T01:34:22;103383.81;;;9.05;95.60
21520;BME280;10921;53.614;9.882;2023-02-12T01:36:49;103357.72;;;8.93;95.87
21520;BME280;10921;53.614;9.882;2023-02-12T01:39:15;103381.28;;;9.02;95.91
21520;BME280;10921;53.614;9.882;2023-02-12T01:41:43;103375.94;;;9.02;95.92
21520;BME280;10921;53.614;9.882;2023-02-12T01:46:36;103383.00;;;9.03;95.64
21520;BME280;10921;53.614;9.882;2023-02-12T01:49:06;103365.91;;;8.88;95.64
21520;BME280;10921;53.614;9.882;2023-02-12T01:51:35;103391.84;;;9.03;96.00
21520;BME280;10921;53.614;9.882;2023-02-12T01:54:04;103384.09;;;8.99;95.90
21520;BME280;10921;53.614;9.882;2023-02-12T01:56:33;103408.88;;;9.01;95.58
21520;BME280;10921;53.614;9.882;2023-02-12T01:59:00;103390.28;;;8.99;95.81
21520;BME280;10921;53.614;9.882;2023-02-12T02:01:28;103387.56;;;9.01;95.63
21520;BME280;10921;53.614;9.882;2023-02-12T02:04:00;103366.78;;;8.89;95.82
21520;BME280;10921;53.614;9.882;2023-02-12T02:06:34;103372.03;;;8.90;96.08
21520;BME280;10921;53.614;9.882;2023-02-12T02:09:02;103384.22;;;8.96;95.63
21520;BME280;10921;53.614;9.882;2023-02-12T02:11:29;103304.44;;;8.55;95.45
21520;BME280;10921;53.614;9.882;2023-02-12T02:14:14;103385.03;;;8.98;95.51
21520;BME280;10921;53.614;9.882;2023-02-12T02:19:49;103389.25;;;9.02;96.13
21520;BME280;10921;53.614;9.882;2023-02-12T02:30:39;103388.13;;;9.07;97.11
21520;BME280;10921;53.614;9.882;2023-02-12T02:33:31;103370.91;;;8.96;96.53
21520;BME280;10921;53.614;9.882;2023-02-12T02:36:10;103391.31;;;9.15;96.59
21520;BME280;10921;53.614;9.882;2023-02-12T02:38:44;103397.13;;;9.05;95.25
21520;BME280;10921;53.614;9.882;2023-02-12T02:41:19;103399.84;;;9.03;95.68
21520;BME280;10921;53.614;9.882;2023-02-12T02:43:51;103398.13;;;9.02;95.36
21520;BME280;10921;53.614;9.882;2023-02-12T02:46:32;103386.69;;;9.00;96.31
21520;BME280;10921;53.614;9.882;2023-02-12T02:49:05;103392.09;;;8.99;95.52
21520;BME280;10921;53.614;9.882;2023-02-12T02:51:39;103399.91;;;9.02;95.53
21520;BME280;10921;53.614;9.882;2023-02-12T02:54:17;103398.22;;;9.01;96.12
21520;BME280;10921;53.614;9.882;2023-02-12T02:56:47;103394.69;;;9.00;95.44
21520;BME280;10921;53.614;9.882;2023-02-12T02:59:23;103394.59;;;9.02;96.04
21520;BME280;10921;53.614;9.882;2023-02-12T03:01:52;103394.69;;;9.00;95.59
21520;BME280;10921;53.614;9.882;2023-02-12T03:04:29;103390.22;;;9.01;96.32
21520;BME280;10921;53.614;9.882;2023-02-12T03:07:11;103395.31;;;9.05;95.68
21520;BME280;10921;53.614;9.882;2023-02-12T03:09:42;103364.34;;;8.84;95.63
21520;BME280;10921;53.614;9.882;2023-02-12T03:12:19;103399.66;;;9.08;96.24
21520;BME280;10921;53.614;9.882;2023-02-12T03:14:58;103393.53;;;9.06;96.63
21520;BME280;10921;53.614;9.882;2023-02-12T03:17:31;103396.06;;;9.09;95.54
21520;BME280;10921;53.614;9.882;2023-02-12T03:20:05;103391.16;;;9.00;96.09
21520;BME280;10921;53.614;9.882;2023-02-12T03:22:35;103394.47;;;9.05;95.62
21520;BME280;10921;53.614;9.882;2023-02-12T03:25:13;103396.84;;;9.11;95.50
21520;BME280;10921;53.614;9.882;2023-02-12T03:27:46;103403.03;;;9.11;95.91
21520;BME280;10921;53.614;9.882;2023-02-12T03:30:15;103408.31;;;9.13;95.28
21520;BME280;10921;53.614;9.882;2023-02-12T03:32:57;103401.25;;;9.12;95.44
21520;BME280;10921;53.614;9.882;2023-02-12T03:35:34;103376.16;;;8.97;95.55
21520;BME280;10921;53.614;9.882;2023-02-12T03:38:28;103400.44;;;9.10;96.81
21520;BME280;10921;53.614;9.882;2023-02-12T03:41:02;103379.16;;;8.90;95.45
21520;BME280;10921;53.614;9.882;2023-02-12T03:43:46;103369.50;;;8.87;96.26
21520;BME280;10921;53.614;9.882;2023-02-12T03:49:09;103409.19;;;9.13;96.34
21520;BME280;10921;53.614;9.882;2023-02-12T03:51:45;103428.81;;;9.11;95.56
21520;BME280;10921;53.614;9.882;2023-02-12T03:54:16;103338.81;;;8.60;95.28
21520;BME280;10921;53.614;9.882;2023-02-12T03:57:04;103438.47;;;9.13;96.75
21520;BME280;10921;53.614;9.882;2023-02-12T03:59:34;103434.16;;;9.11;95.02
21520;BME280;10921;53.614;9.882;2023-02-12T04:02:01;103427.22;;;9.07;95.13
21520;BME280;10921;53.614;9.882;2023-02-12T04:04:28;103429.81;;;9.08;95.18
21520;BME280;10921;53.614;9.882;2023-02-12T04:06:55;103431.53;;;9.09;95.14
21520;BME280;10921;53.614;9.882;2023-02-12T04:09:24;103428.75;;;9.12;95.18
21520;BME280;10921;53.614;9.882;2023-02-12T04:12:05;103402.50;;;9.03;96.20
21520;BME280;10921;53.614;9.882;2023-02-12T04:17:31;103432.16;;;9.16;95.78
21520;BME280;10921;53.614;9.882;2023-02-12T04:20:04;103433.03;;;9.16;95.12
21520;BME280;10921;53.614;9.882;2023-02-12T04:30:58;103446.97;;;9.22;95.75
21520;BME280;10921;53.614;9.882;2023-02-12T04:33:32;103429.75;;;9.10;95.57
21520;BME280;10921;53.614;9.882;2023-02-12T04:36:05;103442.44;;;9.24;95.49
21520;BME280;10921;53.614;9.882;2023-02-12T04:38:40;103445.97;;;9.24;95.85
21520;BME280;10921;53.614;9.882;2023-02-12T04:41:08;103445.09;;;9.24;95.23
21520;BME280;10921;53.614;9.882;2023-02-12T04:43:36;103447.72;;;9.25;95.26
21520;BME280;10921;53.614;9.882;2023-02-12T04:46:05;103452.03;;;9.28;95.25
21520;BME280;10921;53.614;9.882;2023-02-12T04:48:32;103425.22;;;9.12;95.20
21520;BME280;10921;53.614;9.882;2023-02-12T04:51:00;103461.75;;;9.29;95.23
21520;BME280;10921;53.614;9.882;2023-02-12T04:53:27;103450.16;;;9.30;95.35
21520;BME280;10921;53.614;9.882;2023-02-12T04:55:53;103447.44;;;9.31;95.04
21520;BME280;10921;53.614;9.882;2023-02-12T04:58:21;103445.63;;;9.32;95.15
21520;BME280;10921;53.614;9.882;2023-02-12T05:00:47;103442.88;;;9.33;94.96
21520;BME280;10921;53.614;9.882;2023-02-12T05:03:14;103447.28;;;9.34;95.23
21520;BME280;10921;53.614;9.882;2023-02-12T05:05:40;103444.59;;;9.34;95.22
21520;BME280;10921;53.614;9.882;2023-02-12T05:08:07;103433.25;;;9.31;95.27
21520;BME280;10921;53.614;9.882;2023-02-12T05:10:33;103425.59;;;9.23;95.27
21520;BME280;10921;53.614;9.882;2023-02-12T05:13:02;103421.25;;;9.21;95.49
21520;BME280;10921;53.614;9.882;2023-02-12T05:15:29;103449.75;;;9.39;95.43
21520;BME280;10921;53.614;9.882;2023-02-12T05:17:55;103444.53;;;9.36;95.36
21520;BME280;10921;53.614;9.882;2023-02-12T05:20:22;103426.38;;;9.25;95.43
21520;BME280;10921;53.614;9.882;2023-02-12T05:22:52;103447.81;;;9.42;95.88
21520;BME280;10921;53.614;9.882;2023-02-12T05:25:19;103434.88;;;9.33;95.61
21520;BME280;10921;53.614;9.882;2023-02-12T05:27:46;103448.75;;;9.41;95.45
21520;BME280;10921;53.614;9.882;2023-02-12T05:30:13;103437.66;;;9.32;95.57
21520;BME280;10921;53.614;9.882;2023-02-12T05:32:39;103453.88;;;9.46;95.47
21520;BME280;10921;53.614;9.882;2023-02-12T05:35:06;103453.88;;;9.46;95.81
21520;BME280;10921;53.614;9.882;2023-02-12T05:37:34;103462.78;;;9.45;95.72
21520;BME280;10921;53.614;9.882;2023-02-12T05:40:05;103454.72;;;9.46;95.85
21520;BME280;10921;53.614;9.882;2023-02-12T05:42:32;103457.41;;;9.46;95.60
21520;BME280;10921;53.614;9.882;2023-02-12T05:44:58;103459.81;;;9.51;95.67
21520;BME280;10921;53.614;9.882;2023-02-12T05:47:25;103469.63;;;9.50;95.70
21520;BME280;10921;53.614;9.882;2023-02-12T05:49:51;103436.69;;;9.33;95.59
21520;BME280;10921;53.614;9.882;2023-02-12T05:52:18;103470.34;;;9.54;95.75
21520;BME280;10921;53.614;9.882;2023-02-12T05:54:44;103471.22;;;9.55;95.56
21520;BME280;10921;53.614;9.882;2023-02-12T05:57:10;103468.75;;;9.50;95.57
21520;BME280;10921;53.614;9.882;2023-02-12T05:59:38;103466.81;;;9.53;95.61
21520;BME280;10921;53.614;9.882;2023-02-12T06:02:04;103446.88;;;9.43;95.40
21520;BME280;10921;53.614;9.882;2023-02-12T06:04:30;103468.56;;;9.55;95.50
21520;BME280;10921;53.614;9.882;2023-02-12T06:06:59;103463.03;;;9.59;95.63
21520;BME280;10921;53.614;9.882;2023-02-12T06:09:25;103437.41;;;9.36;95.30
21520;BME280;10921;53.614;9.882;2023-02-12T06:11:52;103463.88;;;9.60;95.46
21520;BME280;10921;53.614;9.882;2023-02-12T06:14:19;103471.88;;;9.60;95.28
21520;BME280;10921;53.614;9.882;2023-02-12T06:16:49;103469.28;;;9.58;95.51
21520;BME280;10921;53.614;9.882;2023-02-12T06:19:16;103475.41;;;9.60;95.76
21520;BME280;10921;53.614;9.882;2023-02-12T06:21:43;103476.34;;;9.59;95.14
21520;BME280;10921;53.614;9.882;2023-02-12T06:24:14;103481.63;;;9.61;95.76
21520;BME280;10921;53.614;9.882;2023-02-12T06:26:42;103442.59;;;9.39;95.21
21520;BME280;10921;53.614;9.882;2023-02-12T06:29:09;103478.00;;;9.62;95.45
21520;BME280;10921;53.614;9.882;2023-02-12T06:31:36;103480.69;;;9.62;95.66
21520;BME280;10921;53.614;9.882;2023-02-12T06:34:05;103483.25;;;9.63;95.75
21520;BME280;10921;53.614;9.882;2023-02-12T06:36:32;103486.72;;;9.65;95.46
21520;BME280;10921;53.614;9.882;2023-02-12T06:39:00;103490.31;;;9.64;95.41
21520;BME280;10921;53.614;9.882;2023-02-12T06:41:27;103480.69;;;9.62;95.27
21520;BME280;10921;53.614;9.882;2023-02-12T06:43:54;103480.50;;;9.65;95.29
21520;BME280;10921;53.614;9.882;2023-02-12T06:46:23;103483.25;;;9.63;95.42
21520;BME280;10921;53.614;9.882;2023-02-12T06:48:54;103487.50;;;9.67;95.71
21520;BME280;10921;53.614;9.882;2023-02-12T06:51:21;103492.84;;;9.67;95.47
21520;BME280;10921;53.614;9.882;2023-02-12T06:53:50;103499.97;;;9.67;95.55
21520;BME280;10921;53.614;9.882;2023-02-12T06:56:18;103474.03;;;9.51;95.54
21520;BME280;10921;53.614;9.882;2023-02-12T06:58:46;103500.97;;;9.64;95.84
21520;BME280;10921;53.614;9.882;2023-02-12T07:01:18;103515.75;;;9.71;96.18
21520;BME280;10921;53.614;9.882;2023-02-12T07:03:52;103518.44;;;9.71;95.99
21520;BME280;10921;53.614;9.882;2023-02-12T07:06:19;103521.97;;;9.72;95.92
21520;BME280;10921;53.614;9.882;2023-02-12T07:08:47;103512.38;;;9.68;95.67
21520;BME280;10921;53.614;9.882;2023-02-12T07:11:13;103527.31;;;9.72;95.65
21520;BME280;10921;53.614;9.882;2023-02-12T07:13:41;103522.97;;;9.69;95.41
21520;BME280;10921;53.614;9.882;2023-02-12T07:16:10;103529.91;;;9.73;95.84
21520;BME280;10921;53.614;9.882;2023-02-12T07:18:38;103521.84;;;9.75;95.44
21520;BME280;10921;53.614;9.882;2023-02-12T07:21:05;103514.31;;;9.64;95.38
21520;BME280;10921;53.614;9.882;2023-02-12T07:23:33;103532.69;;;9.70;95.17
21520;BME280;10921;53.614;9.882;2023-02-12T07:26:04;103497.28;;;9.48;95.96
21520;BME280;10921;53.614;9.882;2023-02-12T07:28:31;103549.31;;;9.77;95.99
21520;BME280;10921;53.614;9.882;2023-02-12T07:31:21;103550.88;;;9.81;97.56
21520;BME280;10921;53.614;9.882;2023-02-12T07:33:51;103520.81;;;9.59;96.05
21520;BME280;10921;53.614;9.882;2023-02-12T07:36:18;103556.19;;;9.81;95.90
21520;BME280;10921;53.614;9.882;2023-02-12T07:38:46;103547.50;;;9.77;95.84
21520;BME280;10921;53.614;9.882;2023-02-12T07:41:17;103544.72;;;9.79;96.28
21520;BME280;10921;53.614;9.882;2023-02-12T07:43:45;103553.41;;;9.84;95.86
21520;BME280;10921;53.614;9.882;2023-02-12T07:46:18;103556.88;;;9.86;96.33
21520;BME280;10921;53.614;9.882;2023-02-12T07:48:45;103481.53;;;9.43;95.71
21520;BME280;10921;53.614;9.882;2023-02-12T07:51:14;103555.00;;;9.88;96.22
21520;BME280;10921;53.614;9.882;2023-02-12T07:53:41;103558.47;;;9.90;95.87
21520;BME280;10921;53.614;9.882;2023-02-12T07:56:10;103555.88;;;9.88;95.97
21520;BME280;10921;53.614;9.882;2023-02-12T07:58:43;103556.59;;;9.92;96.20
21520;BME280;10921;53.614;9.882;2023-02-12T08:01:15;103554.69;;;9.94;95.87
21520;BME280;10921;53.614;9.882;2023-02-12T08:03:46;103548.34;;;9.97;95.93
21520;BME280;10921;53.614;9.882;2023-02-12T08:06:34;103547.34;;;9.99;96.29
21520;BME280;10921;53.614;9.882;2023-02-12T08:09:03;103529.97;;;9.91;95.60
21520;BME280;10921;53.614;9.882;2023-02-12T08:11:30;103552.47;;;10.04;95.81
21520;BME280;10921;53.614;9.882;2023-02-12T08:13:57;103535.16;;;9.94;95.95
21520;BME280;10921;53.614;9.882;2023-02-12T08:16:26;103556.75;;;10.08;96.24
21520;BME280;10921;53.614;9.882;2023-02-12T08:18:53;103562.84;;;10.10;96.04
21520;BME280;10921;53.614;9.882;2023-02-12T08:21:22;103566.38;;;10.10;96.25
21520;BME280;10921;53.614;9.882;2023-02-12T08:23:49;103571.50;;;10.15;96.11
21520;BME280;10921;53.614;9.882;2023-02-12T08:26:20;103567.03;;;10.15;96.08
21520;BME280;10921;53.614;9.882;2023-02-12T08:28:52;103569.59;;;10.18;96.12
21520;BME280;10921;53.614;9.882;2023-02-12T08:31:24;103572.19;;;10.20;96.15
21520;BME280;10921;53.614;9.882;2023-02-12T08:33:52;103537.47;;;10.01;95.74
21520;BME280;10921;53.614;9.882;2023-02-12T08:36:22;103571.94;;;10.25;96.33
21520;BME280;10921;53.614;9.882;2023-02-12T08:38:48;103565.13;;;10.19;96.11
21520;BME280;10921;53.614;9.882;2023-02-12T08:41:21;103577.09;;;10.29;96.42
21520;BME280;10921;53.614;9.882;2023-02-12T08:43:50;103533.72;;;10.05;96.13
21520;BME280;10921;53.614;9.882;2023-02-12T08:46:21;103575.22;;;10.31;95.68
21520;BME280;10921;53.614;9.882;2023-02-12T08:48:54;103581.91;;;10.40;96.05
21520;BME280;10921;53.614;9.882;2023-02-12T08:51:24;103532.63;;;10.09;95.90
21520;BME280;10921;53.614;9.882;2023-02-12T08:53:54;103593.09;;;10.48;96.17
21520;BME280;10921;53.614;9.882;2023-02-12T08:56:22;103585.81;;;10.51;95.88
21520;BME280;10921;53.614;9.882;2023-02-12T08:58:49;103585.81;;;10.51;95.57
21520;BME280;10921;53.614;9.882;2023-02-12T09:01:18;103594.28;;;10.60;95.58
21520;BME280;10921;53.614;9.882;2023-02-12T09:03:46;103585.56;;;10.56;95.33
21520;BME280;10921;53.614;9.882;2023-02-12T09:06:13;103605.69;;;10.63;95.00
21520;BME280;10921;53.614;9.882;2023-02-12T09:08:40;103602.88;;;10.66;94.84
21520;BME280;10921;53.614;9.882;2023-02-12T09:11:11;103580.22;;;10.56;94.63
21520;BME280;10921;53.614;9.882;2023-02-12T09:13:38;103607.22;;;10.69;94.31
21520;BME280;10921;53.614;9.882;2023-02-12T09:16:06;103603.56;;;10.70;94.29
21520;BME280;10921;53.614;9.882;2023-02-12T09:18:33;103604.53;;;10.69;94.17
21520;BME280;10921;53.614;9.882;2023-02-12T09:21:05;103601.53;;;10.75;94.70
21520;BME280;10921;53.614;9.882;2023-02-12T09:23:32;103588.50;;;10.69;94.12
21520;BME280;10921;53.614;9.882;2023-02-12T09:25:58;103505.56;;;10.18;94.16
21520;BME280;10921;53.614;9.882;2023-02-12T09:28:25;103595.28;;;10.76;94.08
21520;BME280;10921;53.614;9.882;2023-02-12T09:30:52;103598.59;;;10.81;93.71
21520;BME280;10921;53.614;9.882;2023-02-12T09:33:19;103608.00;;;10.88;93.67
21520;BME280;10921;53.614;9.882;2023-02-12T09:35:45;103544.63;;;10.55;93.64
21520;BME280;10921;53.614;9.882;2023-02-12T09:38:11;103607.16;;;10.87;93.46
21520;BME280;10921;53.614;9.882;2023-02-12T09:49:09;103629.47;;;11.04;94.11
21520;BME280;10921;53.614;9.882;2023-02-12T09:51:41;103627.75;;;11.03;92.69
21520;BME280;10921;53.614;9.882;2023-02-12T09:54:25;103628.47;;;11.06;94.21
21520;BME280;10921;53.614;9.882;2023-02-12T09:56:57;103621.78;;;10.98;92.55
21520;BME280;10921;53.614;9.882;2023-02-12T09:59:39;103627.69;;;11.04;94.15
21520;BME280;10921;53.614;9.882;2023-02-12T10:02:16;103632.41;;;10.99;93.54
21520;BME280;10921;53.614;9.882;2023-02-12T10:04:45;103637.75;;;10.99;92.89
21520;BME280;10921;53.614;9.882;2023-02-12T10:07:36;103643.97;;;11.00;93.32
21520;BME280;10921;53.614;9.882;2023-02-12T10:21:23;103641.13;;;11.03;93.83
21520;BME280;10921;53.614;9.882;2023-02-12T10:24:10;103642.84;;;11.04;93.94
21520;BME280;10921;53.614;9.882;2023-02-12T10:26:46;103632.47;;;10.98;93.09
21520;BME280;10921;53.614;9.882;2023-02-12T10:29:20;103639.31;;;11.03;93.59
21520;BME280;10921;53.614;9.882;2023-02-12T10:31:52;103641.03;;;11.04;93.51
21520;BME280;10921;53.614;9.882;2023-02-12T10:34:26;103628.88;;;10.99;92.89
21520;BME280;10921;53.614;9.882;2023-02-12T10:37:04;103639.16;;;11.06;93.61
21520;BME280;10921;53.614;9.882;2023-02-12T10:39:40;103637.44;;;11.05;92.97
21520;BME280;10921;53.614;9.882;2023-02-12T10:44:37;103636.72;;;11.02;92.61
21520;BME280;10921;53.614;9.882;2023-02-12T10:47:04;103598.66;;;10.79;92.60
21520;BME280;10921;53.614;9.882;2023-02-12T10:49:31;103624.63;;;10.95;92.50
21520;BME280;10921;53.614;9.882;2023-02-12T10:52:08;103631.38;;;11.02;93.64
21520;BME280;10921;53.614;9.882;2023-02-12T10:57:25;103616.03;;;10.88;94.19
21520;BME280;10921;53.614;9.882;2023-02-12T10:59:55;103629.81;;;10.98;92.92
21520;BME280;10921;53.614;9.882;2023-02-12T11:02:31;103632.47;;;10.98;93.60
21520;BME280;10921;53.614;9.882;2023-02-12T11:04:59;103628.88;;;10.99;93.44
21520;BME280;10921;53.614;9.882;2023-02-12T11:07:28;103631.53;;;10.99;93.25
21520;BME280;10921;53.614;9.882;2023-02-12T11:09:55;103631.53;;;10.99;93.36
21520;BME280;10921;53.614;9.882;2023-02-12T11:12:41;103617.84;;;11.05;95.58
21520;BME280;10921;53.614;9.882;2023-02-12T11:15:15;103617.06;;;11.03;93.88
21520;BME280;10921;53.614;9.882;2023-02-12T11:17:45;103604.63;;;11.02;94.20
21520;BME280;10921;53.614;9.882;2023-02-12T11:20:27;103615.97;;;11.07;94.82
21520;BME280;10921;53.614;9.882;2023-02-12T11:22:58;103617.78;;;11.06;93.95
21520;BME280;10921;53.614;9.882;2023-02-12T11:25:28;103614.16;;;11.07;93.77
21520;BME280;10921;53.614;9.882;2023-02-12T11:28:04;103608.03;;;11.22;95.27
21520;BME280;10921;53.614;9.882;2023-02-12T11:30:31;103609.53;;;11.11;93.20
21520;BME280;10921;53.614;9.882;2023-02-12T11:33:24;103609.41;;;11.14;95.20
21520;BME280;10921;53.614;9.882;2023-02-12T11:38:39;103609.47;;;11.12;93.58
21520;BME280;10921;53.614;9.882;2023-02-12T11:41:32;103604.91;;;11.14;94.59
21520;BME280;10921;53.614;9.882;2023-02-12T11:44:16;103601.25;;;11.15;94.76
21520;BME280;10921;53.614;9.882;2023-02-12T11:46:54;103608.44;;;11.15;94.49
21520;BME280;10921;53.614;9.882;2023-02-12T11:49:26;103592.63;;;11.10;93.74
21520;BME280;10921;53.614;9.882;2023-02-12T11:51:54;103597.13;;;11.10;93.15
21520;BME280;10921;53.614;9.882;2023-02-12T11:54:25;103597.91;;;11.12;93.37
21520;BME280;10921;53.614;9.882;2023-02-12T11:56:52;103592.00;;;11.05;93.26
21520;BME280;10921;53.614;9.882;2023-02-12T12:02:02;103605.06;;;11.11;93.84
21520;BME280;10921;53.614;9.882;2023-02-12T12:04:32;103603.41;;;11.09;93.63
21520;BME280;10921;53.614;9.882;2023-02-12T12:07:01;103608.84;;;11.24;94.90
21520;BME280;10921;53.614;9.882;2023-02-12T12:09:47;103604.03;;;11.14;95.10
21520;BME280;10921;53.614;9.882;2023-02-12T12:12:22;103597.13;;;11.10;93.99
21520;BME280;10921;53.614;9.882;2023-02-12T12:15:03;103599.88;;;11.08;94.86
21520;BME280;10921;53.614;9.882;2023-02-12T12:17:55;103601.91;;;11.03;93.79
21520;BME280;10921;53.614;9.882;2023-02-12T12:20:48;103595.88;;;11.00;93.74
21520;BME280;10921;53.614;9.882;2023-02-12T12:23:41;103594.13;;;10.99;93.91
21520;BME280;10921;53.614;9.882;2023-02-12T12:26:12;103565.03;;;10.75;93.89
21520;BME280;10921;53.614;9.882;2023-02-12T12:28:42;103579.97;;;10.97;93.93
21520;BME280;10921;53.614;9.882;2023-02-12T12:31:19;103591.53;;;10.97;94.20
21520;BME280;10921;53.614;9.882;2023-02-12T12:34:16;103570.75;;;10.85;95.06
21520;BME280;10921;53.614;9.882;2023-02-12T12:36:52;103583.53;;;10.97;94.74
21520;BME280;10921;53.614;9.882;2023-02-12T12:39:28;103574.72;;;10.95;94.42
21520;BME280;10921;53.614;9.882;2023-02-12T12:44:49;103579.34;;;10.91;93.73
21520;BME280;10921;53.614;9.882;2023-02-12T12:52:51;103563.38;;;10.90;94.87
21520;BME280;10921;53.614;9.882;2023-02-12T12:57:52;103557.81;;;10.95;95.10
21520;BME280;10921;53.614;9.882;2023-02-12T13:00:34;103549.09;;;10.91;95.75
21520;BME280;10921;53.614;9.882;2023-02-12T13:09:26;103552.41;;;10.96;96.09
21520;BME280;10921;53.614;9.882;2023-02-12T13:14:36;103550.03;;;10.90;94.89
21520;BME280;10921;53.614;9.882;2023-02-12T13:22:47;103550.66;;;10.95;96.20
21520;BME280;10921;53.614;9.882;2023-02-12T13:25:31;103543.44;;;10.97;96.27
21520;BME280;10921;53.614;9.882;2023-02-12T13:28:02;103551.38;;;10.99;95.26
21520;BME280;10921;53.614;9.882;2023-02-12T13:30:57;103540.44;;;11.03;96.44
21520;BME280;10921;53.614;9.882;2023-02-12T13:33:40;103545.00;;;11.01;95.79
21520;BME280;10921;53.614;9.882;2023-02-12T13:36:11;103541.63;;;10.98;94.76
21520;BME280;10921;53.614;9.882;2023-02-12T13:38:47;103543.19;;;11.02;95.95
21520;BME280;10921;53.614;9.882;2023-02-12T13:41:16;103542.25;;;11.03;95.47
21520;BME280;10921;53.614;9.882;2023-02-12T13:49:09;103542.00;;;11.07;95.77
21520;BME280;10921;53.614;9.882;2023-02-12T13:51:45;103550.97;;;11.06;94.73
21520;BME280;10921;53.614;9.882;2023-02-12T13:56:44;103540.44;;;11.03;94.60
21520;BME280;10921;53.614;9.882;2023-02-12T14:01:59;103544.03;;;11.02;94.27
21520;BME280;10921;53.614;9.882;2023-02-12T14:04:30;103547.66;;;11.01;94.03
21520;BME280;10921;53.614;9.882;2023-02-12T14:07:05;103539.97;;;10.95;94.70
21520;BME280;10921;53.614;9.882;2023-02-12T14:12:11;103544.91;;;10.85;94.11
21520;BME280;10921;53.614;9.882;2023-02-12T14:14:45;103534.22;;;10.85;94.11
21520;BME280;10921;53.614;9.882;2023-02-12T14:20:19;103531.81;;;10.81;93.97
21520;BME280;10921;53.614;9.882;2023-02-12T14:27:56;103532.09;;;10.75;94.94
21520;BME280;10921;53.614;9.882;2023-02-12T14:30:28;103527.69;;;10.74;94.97
21520;BME280;10921;53.614;9.882;2023-02-12T14:35:43;103536.56;;;10.74;95.59
21520;BME280;10921;53.614;9.882;2023-02-12T14:40:47;103546.47;;;10.72;95.69
21520;BME280;10921;53.614;9.882;2023-02-12T14:43:34;103542.00;;;10.73;96.13
21520;BME280;10921;53.614;9.882;2023-02-12T14:51:41;103547.66;;;10.67;95.50
21520;BME280;10921;53.614;9.882;2023-02-12T14:54:24;103541.69;;;10.62;95.21
21520;BME280;10921;53.614;9.882;2023-02-12T14:56:53;103533.09;;;10.55;94.35
21520;BME280;10921;53.614;9.882;2023-02-12T14:59:23;103544.28;;;10.63;94.46
21520;BME280;10921;53.614;9.882;2023-02-12T15:01:51;103543.47;;;10.61;94.34
21520;BME280;10921;53.614;9.882;2023-02-12T15:04:26;103532.16;;;10.56;95.40
21520;BME280;10921;53.614;9.882;2023-02-12T15:07:08;103544.28;;;10.63;95.96
21520;BME280;10921;53.614;9.882;2023-02-12T15:09:54;103547.72;;;10.65;96.12
21520;BME280;10921;53.614;9.882;2023-02-12T15:12:36;103544.06;;;10.68;96.02